createdAt,value
2023-04-22T00:01:17.321Z,6.30
2023-04-22T00:03:44.769Z,6.73
2023-04-22T00:06:12.253Z,6.67
2023-04-22T00:08:39.454Z,7.20
2023-04-22T00:11:06.711Z,6.70
2023-04-22T00:13:33.898Z,6.97
2023-04-22T00:16:01.119Z,6.73
2023-04-22T00:18:28.303Z,6.30
2023-04-22T00:20:55.550Z,7.20
2023-04-22T00:23:22.700Z,6.70
2023-04-22T00:25:49.794Z,7.37
2023-04-22T00:28:16.894Z,7.03
2023-04-22T00:30:44.013Z,6.50
2023-04-22T00:33:11.362Z,6.63
2023-04-22T00:35:38.546Z,6.90
2023-04-22T00:38:05.757Z,7.13
2023-04-22T00:40:32.917Z,6.60
2023-04-22T00:43:00.815Z,6.70
2023-04-22T00:45:27.960Z,6.80
2023-04-22T00:47:55.311Z,7.53
2023-04-22T00:50:22.531Z,6.97
2023-04-22T00:52:49.706Z,7.03
2023-04-22T00:55:16.916Z,7.77
2023-04-22T00:57:44.098Z,7.53
2023-04-22T01:00:12.092Z,6.73
2023-04-22T01:02:39.602Z,6.80
2023-04-22T01:05:09.470Z,6.73
2023-04-22T01:07:36.850Z,7.80
2023-04-22T01:10:04.529Z,6.77
2023-04-22T01:12:31.689Z,6.97
2023-04-22T01:14:58.848Z,7.47
2023-04-22T01:17:26.064Z,6.87
2023-04-22T01:19:53.352Z,7.10
2023-04-22T01:22:21.596Z,7.03
2023-04-22T01:24:48.857Z,7.33
2023-04-22T01:27:16.221Z,6.93
2023-04-22T01:29:43.563Z,7.13
2023-04-22T01:32:11.275Z,7.20
2023-04-22T01:34:38.534Z,7.50
2023-04-22T01:37:06.790Z,7.10
2023-04-22T01:39:33.990Z,7.40
2023-04-22T01:42:02.132Z,7.57
2023-04-22T01:44:29.301Z,7.13
2023-04-22T01:46:56.446Z,7.00
2023-04-22T01:49:23.575Z,7.20
2023-04-22T01:51:50.687Z,7.37
2023-04-22T01:54:17.815Z,7.33
2023-04-22T01:56:50.065Z,7.20
2023-04-22T01:59:17.215Z,6.93
2023-04-22T02:01:44.368Z,7.70
2023-04-22T02:04:11.597Z,7.30
2023-04-22T02:06:38.683Z,7.40
2023-04-22T02:09:06.150Z,7.93
2023-04-22T02:11:33.278Z,6.90
2023-04-22T02:14:00.402Z,7.57
2023-04-22T02:16:27.589Z,7.53
2023-04-22T02:18:54.785Z,7.83
2023-04-22T02:21:21.932Z,7.60
2023-04-22T02:23:49.129Z,7.00
2023-04-22T02:26:16.222Z,7.47
2023-04-22T02:28:43.350Z,8.00
2023-04-22T02:31:10.622Z,7.37
2023-04-22T02:33:37.871Z,7.83
2023-04-22T02:36:05.093Z,7.13
2023-04-22T02:38:32.266Z,8.00
2023-04-22T02:40:59.358Z,7.70
2023-04-22T02:43:26.431Z,7.80
2023-04-22T02:45:53.527Z,7.33
2023-04-22T02:48:20.761Z,8.00
2023-04-22T02:50:47.884Z,7.37
2023-04-22T02:53:15.062Z,8.33
2023-04-22T02:55:42.707Z,7.53
2023-04-22T02:58:09.953Z,7.93
2023-04-22T03:00:37.153Z,7.50
2023-04-22T03:03:04.468Z,7.23
2023-04-22T03:05:31.852Z,7.37
2023-04-22T03:07:58.969Z,7.23
2023-04-22T03:10:26.062Z,7.73
2023-04-22T03:12:53.173Z,8.00
2023-04-22T03:15:21.717Z,7.83
2023-04-22T03:17:49.195Z,7.83
2023-04-22T03:20:16.714Z,7.23
2023-04-22T03:22:43.948Z,8.47
2023-04-22T03:25:11.716Z,8.47
2023-04-22T03:27:38.824Z,8.47
2023-04-22T03:30:06.381Z,8.47
2023-04-22T03:32:33.589Z,8.37
2023-04-22T03:35:01.174Z,8.60
2023-04-22T03:37:28.881Z,8.70
2023-04-22T03:39:56.356Z,8.67
2023-04-22T03:42:23.446Z,8.63
2023-04-22T03:44:50.556Z,8.90
2023-04-22T03:47:17.681Z,8.60
2023-04-22T03:49:45.307Z,9.20
2023-04-22T03:52:12.457Z,8.43
2023-04-22T03:54:39.631Z,8.70
2023-04-22T03:57:07.083Z,8.60
2023-04-22T03:59:34.194Z,8.20
2023-04-22T04:02:01.318Z,8.47
2023-04-22T04:06:56.885Z,7.90
2023-04-22T04:09:23.990Z,7.07
2023-04-22T04:11:51.184Z,7.60
2023-04-22T04:14:18.334Z,7.17
2023-04-22T04:16:45.547Z,7.47
2023-04-22T04:19:12.679Z,7.20
2023-04-22T04:21:39.836Z,7.57
2023-04-22T04:24:07.334Z,7.20
2023-04-22T04:26:34.650Z,8.03
2023-04-22T04:29:01.916Z,8.13
2023-04-22T04:31:29.524Z,8.00
2023-04-22T04:33:57.394Z,8.10
2023-04-22T04:36:27.580Z,7.53
2023-04-22T04:38:55.763Z,7.17
2023-04-22T04:41:23.392Z,8.03
2023-04-22T04:43:51.866Z,7.60
2023-04-22T04:46:19.959Z,7.10
2023-04-22T04:48:48.675Z,6.80
2023-04-22T04:51:17.548Z,6.20
2023-04-22T04:53:46.044Z,5.70
2023-04-22T04:56:13.491Z,5.93
2023-04-22T04:58:40.611Z,5.47
2023-04-22T05:01:07.762Z,5.67
2023-04-22T05:03:35.029Z,5.90
2023-04-22T05:06:02.505Z,5.47
2023-04-22T05:08:29.626Z,5.20
2023-04-22T05:10:56.861Z,5.97
2023-04-22T05:13:24.040Z,5.20
2023-04-22T05:15:51.214Z,5.20
2023-04-22T05:18:18.595Z,5.33
2023-04-22T05:20:45.719Z,5.20
2023-04-22T05:23:12.794Z,5.30
2023-04-22T05:25:39.971Z,4.93
2023-04-22T05:28:07.047Z,5.30
2023-04-22T05:30:34.186Z,5.70
2023-04-22T05:33:01.355Z,4.97
2023-04-22T05:35:28.717Z,5.30
2023-04-22T05:37:55.804Z,5.20
2023-04-22T05:40:22.946Z,4.93
2023-04-22T05:42:50.314Z,4.80
2023-04-22T05:45:17.766Z,5.50
2023-04-22T05:47:44.988Z,5.03
2023-04-22T05:50:12.260Z,5.47
2023-04-22T05:52:39.380Z,5.40
2023-04-22T05:55:06.782Z,5.10
2023-04-22T05:57:33.905Z,5.63
2023-04-22T06:00:01.397Z,5.90
2023-04-22T06:02:28.702Z,5.77
2023-04-22T06:04:56.509Z,5.80
2023-04-22T06:07:23.888Z,5.53
2023-04-22T06:09:59.334Z,5.70
2023-04-22T06:12:29.471Z,6.00
2023-04-22T06:14:56.554Z,5.83
2023-04-22T06:17:23.710Z,5.97
2023-04-22T06:19:51.183Z,6.40
2023-04-22T06:22:18.285Z,6.33
2023-04-22T06:24:46.408Z,6.20
2023-04-22T06:27:15.274Z,6.57
2023-04-22T06:29:42.442Z,7.03
2023-04-22T06:32:09.570Z,6.53
2023-04-22T06:34:38.653Z,6.80
2023-04-22T06:37:06.252Z,6.87
2023-04-22T06:39:33.347Z,6.93
2023-04-22T06:42:01.755Z,6.47
2023-04-22T06:44:29.837Z,6.20
2023-04-22T06:46:58.226Z,6.67
2023-04-22T06:49:25.760Z,6.53
2023-04-22T06:51:52.930Z,6.60
2023-04-22T06:54:20.036Z,6.57
2023-04-22T06:56:47.133Z,6.10
2023-04-22T06:59:14.241Z,6.30
2023-04-22T07:01:41.458Z,6.20
2023-04-22T07:04:08.670Z,5.85
2023-04-22T07:06:35.863Z,5.80
2023-04-22T07:09:03.135Z,5.35
2023-04-22T07:11:31.552Z,5.90
2023-04-22T07:13:58.848Z,5.47
2023-04-22T07:16:28.062Z,5.53
2023-04-22T07:18:55.459Z,5.40
2023-04-22T07:21:22.697Z,5.68
2023-04-22T07:23:49.840Z,5.57
2023-04-22T07:26:16.961Z,5.38
2023-04-22T07:28:44.084Z,5.65
2023-04-22T07:31:11.207Z,4.82
2023-04-22T07:33:38.305Z,4.85
2023-04-22T07:36:05.705Z,5.80
2023-04-22T07:38:32.879Z,5.68
2023-04-22T07:41:00.056Z,5.22
2023-04-22T07:43:27.165Z,5.50
2023-04-22T07:45:54.301Z,5.82
2023-04-22T07:48:21.645Z,5.10
2023-04-22T07:50:48.794Z,5.57
2023-04-22T07:53:17.377Z,5.32
2023-04-22T07:55:44.543Z,5.10
2023-04-22T07:58:11.646Z,5.15
2023-04-22T08:00:38.796Z,5.05
2023-04-22T08:03:06.127Z,5.03
2023-04-22T08:05:33.515Z,4.70
2023-04-22T08:08:00.730Z,4.47
2023-04-22T08:10:27.871Z,4.72
2023-04-22T08:12:55.063Z,5.20
2023-04-22T08:15:22.248Z,5.15
2023-04-22T08:17:49.485Z,4.68
2023-04-22T08:20:18.071Z,4.38
2023-04-22T08:22:45.678Z,4.25
2023-04-22T08:25:12.973Z,4.68
2023-04-22T08:27:40.130Z,5.10
2023-04-22T08:30:07.896Z,5.00
2023-04-22T08:32:35.083Z,4.63
2023-04-22T08:35:05.181Z,5.22
2023-04-22T08:37:32.701Z,4.70
2023-04-22T08:39:59.834Z,4.30
2023-04-22T08:42:27.925Z,4.65
2023-04-22T08:44:55.366Z,4.40
2023-04-22T08:47:22.730Z,4.13
2023-04-22T08:49:51.679Z,4.10
2023-04-22T08:52:19.000Z,4.22
2023-04-22T08:54:46.145Z,4.00
2023-04-22T08:57:14.323Z,3.97
2023-04-22T08:59:42.153Z,3.95
2023-04-22T09:02:14.367Z,4.03
2023-04-22T09:04:43.289Z,4.22
2023-04-22T09:07:11.994Z,4.10
2023-04-22T09:09:39.541Z,3.90
2023-04-22T09:12:06.927Z,3.67
2023-04-22T09:14:34.523Z,3.92
2023-04-22T09:17:03.887Z,3.80
2023-04-22T09:19:30.990Z,4.22
2023-04-22T09:22:00.880Z,4.03
2023-04-22T09:24:28.075Z,3.78
2023-04-22T09:26:57.215Z,3.80
2023-04-22T09:29:30.131Z,4.03
2023-04-22T09:31:57.309Z,4.30
2023-04-22T09:34:24.536Z,4.20
2023-04-22T09:36:52.209Z,4.13
2023-04-22T09:39:19.335Z,3.97
2023-04-22T09:41:46.483Z,3.70
2023-04-22T09:44:20.819Z,4.30
2023-04-22T09:46:50.971Z,3.70
2023-04-22T09:49:18.164Z,3.80
2023-04-22T09:51:45.338Z,3.92
2023-04-22T09:54:12.517Z,3.97
2023-04-22T09:56:49.274Z,3.53
2023-04-22T09:59:21.184Z,3.50
2023-04-22T10:01:48.475Z,4.00
2023-04-22T10:04:16.499Z,3.38
2023-04-22T10:06:43.794Z,3.85
2023-04-22T10:09:12.291Z,3.80
2023-04-22T10:11:40.704Z,3.80
2023-04-22T10:14:10.647Z,4.05
2023-04-22T10:16:39.533Z,3.67
2023-04-22T10:19:07.990Z,3.20
2023-04-22T10:21:35.494Z,3.08
2023-04-22T10:24:02.630Z,3.20
2023-04-22T10:26:48.803Z,3.17
2023-04-22T10:29:17.168Z,3.05
2023-04-22T10:31:45.085Z,3.22
2023-04-22T10:34:13.287Z,3.33
2023-04-22T10:37:00.844Z,3.50
2023-04-22T10:39:29.057Z,3.50
2023-04-22T10:41:57.879Z,3.20
2023-04-22T10:44:28.986Z,3.33
2023-04-22T10:46:56.576Z,3.47
2023-04-22T10:49:25.089Z,3.10
2023-04-22T10:51:52.267Z,2.90
2023-04-22T10:54:31.610Z,3.55
2023-04-22T10:57:02.993Z,3.15
2023-04-22T10:59:30.622Z,3.58
2023-04-22T11:02:02.344Z,2.75
2023-04-22T11:04:29.583Z,3.10
2023-04-22T11:07:16.267Z,2.70
2023-04-22T11:09:50.538Z,2.70
2023-04-22T11:12:38.244Z,2.47
2023-04-22T11:15:08.552Z,2.22
2023-04-22T11:17:36.470Z,2.00
2023-04-22T11:20:04.886Z,1.88
2023-04-22T11:22:38.628Z,1.70
2023-04-22T11:25:06.596Z,2.20
2023-04-22T11:27:33.761Z,2.28
2023-04-22T11:30:08.236Z,2.30
2023-04-22T11:32:36.003Z,2.17
2023-04-22T11:35:04.707Z,2.40
2023-04-22T11:37:31.901Z,2.10
2023-04-22T11:42:35.681Z,2.20
2023-04-22T11:45:02.851Z,1.90
2023-04-22T11:47:30.743Z,1.98
2023-04-22T11:50:04.696Z,1.80
2023-04-22T11:52:45.455Z,1.70
2023-04-22T11:55:16.632Z,2.00
2023-04-22T11:57:44.322Z,1.73
2023-04-22T12:00:12.786Z,1.90
2023-04-22T12:02:40.376Z,1.60
2023-04-22T12:05:11.678Z,1.70
2023-04-22T12:07:39.159Z,1.75
2023-04-22T12:10:07.812Z,1.70
2023-04-22T12:12:37.124Z,1.75
2023-04-22T12:15:13.454Z,1.90
2023-04-22T12:17:41.052Z,1.45
2023-04-22T12:20:13.063Z,1.60
2023-04-22T12:22:40.324Z,1.50
2023-04-22T12:25:07.623Z,1.38
2023-04-22T12:27:35.513Z,1.17
2023-04-22T12:30:03.640Z,1.35
2023-04-22T12:32:30.800Z,1.33
2023-04-22T12:34:57.922Z,3.10
2023-04-22T12:37:25.039Z,1.40
2023-04-22T12:39:52.226Z,1.30
2023-04-22T12:42:19.342Z,1.60
2023-04-22T12:44:46.950Z,1.60
2023-04-22T12:47:14.211Z,1.50
2023-04-22T12:49:41.821Z,1.65
2023-04-22T12:52:09.611Z,1.50
2023-04-22T12:54:36.754Z,1.55
2023-04-22T12:57:03.945Z,1.80
2023-04-22T12:59:31.440Z,1.67
2023-04-22T13:01:58.671Z,1.67
2023-04-22T13:04:26.073Z,1.40
2023-04-22T13:06:56.444Z,1.50
2023-04-22T13:09:25.467Z,1.77
2023-04-22T13:11:53.417Z,1.50
2023-04-22T13:14:20.610Z,1.50
2023-04-22T13:16:47.787Z,1.67
2023-04-22T13:19:15.397Z,1.45
2023-04-22T13:21:43.565Z,1.40
2023-04-22T13:24:10.888Z,1.48
2023-04-22T13:26:38.889Z,1.50
2023-04-22T13:29:11.120Z,1.30
2023-04-22T13:31:39.016Z,1.45
2023-04-22T13:34:06.187Z,1.45
2023-04-22T13:36:33.321Z,1.40
2023-04-22T13:39:01.299Z,1.65
2023-04-22T13:41:28.461Z,1.33
2023-04-22T13:43:56.092Z,1.40
2023-04-22T13:46:23.322Z,1.40
2023-04-22T13:48:50.572Z,1.50
2023-04-22T13:51:17.743Z,1.40
2023-04-22T13:53:45.160Z,1.45
2023-04-22T13:56:12.752Z,1.40
2023-04-22T13:58:41.143Z,1.40
2023-04-22T14:01:08.562Z,1.40
2023-04-22T14:03:36.594Z,1.50
2023-04-22T14:06:03.920Z,1.75
2023-04-22T14:08:31.070Z,1.70
2023-04-22T14:10:59.427Z,1.45
2023-04-22T14:13:29.804Z,1.38
2023-04-22T14:15:57.530Z,1.60
2023-04-22T14:18:24.808Z,1.50
2023-04-22T14:20:52.647Z,1.52
2023-04-22T14:23:19.839Z,1.63
2023-04-22T14:25:47.947Z,1.70
2023-04-22T14:28:15.661Z,1.40
2023-04-22T14:30:43.191Z,1.48
2023-04-22T14:33:10.762Z,1.30
2023-04-22T14:35:38.519Z,1.40
2023-04-22T14:38:07.611Z,1.40
2023-04-22T14:40:34.702Z,1.55
2023-04-22T14:43:02.668Z,1.42
2023-04-22T14:45:30.673Z,1.33
2023-04-22T14:47:58.591Z,1.55
2023-04-22T14:50:26.010Z,1.60
2023-04-22T14:52:53.677Z,1.63
2023-04-22T14:55:23.918Z,1.40
2023-04-22T14:57:51.961Z,1.30
2023-04-22T15:00:19.195Z,1.60
2023-04-22T15:02:46.616Z,1.60
2023-04-22T15:05:13.964Z,1.30
2023-04-22T15:07:41.187Z,1.40
2023-04-22T15:10:08.625Z,1.73
2023-04-22T15:12:35.822Z,1.30
2023-04-22T15:15:02.963Z,1.55
2023-04-22T15:17:30.864Z,1.75
2023-04-22T15:19:58.197Z,2.00
2023-04-22T15:22:25.705Z,1.40
2023-04-22T15:24:52.897Z,1.58
2023-04-22T15:27:20.072Z,1.50
2023-04-22T15:29:47.459Z,1.65
2023-04-22T15:32:14.630Z,1.58
2023-04-22T15:34:41.792Z,1.60
2023-04-22T15:37:08.973Z,1.58
2023-04-22T15:39:36.106Z,1.88
2023-04-22T15:42:03.436Z,1.92
2023-04-22T15:44:30.597Z,1.58
2023-04-22T15:46:59.617Z,1.48
2023-04-22T15:49:26.823Z,1.63
2023-04-22T15:51:54.279Z,1.60
2023-04-22T15:54:21.510Z,1.70
2023-04-22T15:56:48.624Z,1.77
2023-04-22T15:59:15.839Z,1.92
2023-04-22T16:01:45.818Z,2.08
2023-04-22T16:04:13.917Z,2.30
2023-04-22T16:06:41.487Z,2.20
2023-04-22T16:09:08.649Z,2.22
2023-04-22T16:11:35.778Z,2.28
2023-04-22T16:14:02.866Z,2.33
2023-04-22T16:16:30.235Z,2.10
2023-04-22T16:18:57.334Z,2.17
2023-04-22T16:21:24.574Z,2.17
2023-04-22T16:23:51.735Z,2.20
2023-04-22T16:26:18.865Z,2.13
2023-04-22T16:28:46.887Z,2.42
2023-04-22T16:31:14.126Z,2.30
2023-04-22T16:33:41.275Z,2.40
2023-04-22T16:36:08.969Z,2.75
2023-04-22T16:38:36.190Z,2.47
2023-04-22T16:41:03.821Z,2.50
2023-04-22T16:43:31.099Z,2.47
2023-04-22T16:45:58.236Z,2.67
2023-04-22T16:48:25.400Z,2.50
2023-04-22T16:50:52.704Z,2.75
2023-04-22T16:53:19.850Z,2.88
2023-04-22T16:55:46.976Z,5.20
2023-04-22T16:58:14.149Z,3.97
2023-04-22T17:00:41.345Z,2.90
2023-04-22T17:03:08.726Z,2.50
2023-04-22T17:05:36.006Z,2.47
2023-04-22T17:08:03.427Z,2.50
2023-04-22T17:10:30.710Z,3.00
2023-04-22T17:12:57.806Z,2.90
2023-04-22T17:15:24.935Z,2.40
2023-04-22T17:17:52.232Z,2.38
2023-04-22T17:20:19.509Z,2.28
2023-04-22T17:22:46.741Z,2.60
2023-04-22T17:25:13.904Z,2.60
2023-04-22T17:27:41.119Z,2.70
2023-04-22T17:30:08.493Z,3.28
2023-04-22T17:32:35.848Z,3.72
2023-04-22T17:35:03.001Z,3.55
2023-04-22T17:37:30.101Z,3.20
2023-04-22T17:39:57.298Z,3.15
2023-04-22T17:42:32.149Z,3.15
2023-04-22T17:45:06.706Z,3.35
2023-04-22T17:47:33.850Z,3.42
2023-04-22T17:50:01.043Z,3.13
2023-04-22T17:52:28.272Z,3.17
2023-04-22T17:54:55.411Z,3.22
2023-04-22T17:57:22.519Z,3.28
2023-04-22T17:59:49.700Z,3.20
2023-04-22T18:02:17.023Z,2.90
2023-04-22T18:04:44.496Z,2.90
2023-04-22T18:07:11.616Z,2.75
2023-04-22T18:09:39.168Z,3.05
2023-04-22T18:12:06.815Z,3.15
2023-04-22T18:14:34.080Z,2.83
2023-04-22T18:17:02.721Z,2.58
2023-04-22T18:19:29.893Z,2.28
2023-04-22T18:22:00.038Z,2.65
2023-04-22T18:24:27.915Z,2.22
2023-04-22T18:26:55.031Z,2.40
2023-04-22T18:29:22.219Z,2.33
2023-04-22T18:31:49.354Z,2.33
2023-04-22T18:34:16.546Z,2.13
2023-04-22T18:36:43.712Z,2.20
2023-04-22T18:39:11.418Z,2.30
2023-04-22T18:41:39.485Z,2.27
2023-04-22T18:44:07.036Z,2.13
2023-04-22T18:46:34.165Z,2.30
2023-04-22T18:49:01.474Z,2.10
2023-04-22T18:51:29.829Z,2.60
2023-04-22T18:53:57.049Z,2.90
2023-04-22T18:56:24.265Z,2.40
2023-04-22T18:58:51.413Z,2.23
2023-04-22T19:01:18.713Z,2.53
2023-04-22T19:06:13.623Z,2.43
2023-04-22T19:08:40.775Z,2.20
2023-04-22T19:11:07.981Z,2.50
2023-04-22T19:13:35.205Z,2.63
2023-04-22T19:16:02.478Z,2.70
2023-04-22T19:18:29.704Z,2.60
2023-04-22T19:20:56.884Z,2.47
2023-04-22T19:23:24.106Z,3.53
2023-04-22T19:25:51.829Z,2.57
2023-04-22T19:28:18.949Z,2.67
2023-04-22T19:30:46.151Z,2.70
2023-04-22T19:33:13.294Z,3.10
2023-04-22T19:35:40.414Z,2.80
2023-04-22T19:38:07.562Z,2.80
2023-04-22T19:40:35.509Z,2.80
2023-04-22T19:43:02.751Z,2.63
2023-04-22T19:45:30.011Z,3.23
2023-04-22T19:47:57.548Z,3.70
2023-04-22T19:50:24.796Z,3.40
2023-04-22T19:52:52.089Z,3.40
2023-04-22T19:55:19.496Z,3.70
2023-04-22T19:57:46.951Z,3.90
2023-04-22T20:00:14.256Z,3.70
2023-04-22T20:02:41.606Z,4.07
2023-04-22T20:05:09.409Z,4.17
2023-04-22T20:07:37.237Z,4.33
2023-04-22T20:10:05.442Z,3.90
2023-04-22T20:12:32.825Z,3.73
2023-04-22T20:15:00.382Z,3.40
2023-04-22T20:17:27.918Z,3.33
2023-04-22T20:19:55.631Z,3.13
2023-04-22T20:22:24.714Z,3.30
2023-04-22T20:24:56.932Z,3.17
2023-04-22T20:27:25.658Z,3.37
2023-04-22T20:29:53.569Z,3.00
2023-04-22T20:32:20.780Z,3.10
2023-04-22T20:34:48.004Z,3.07
2023-04-22T20:37:16.980Z,2.67
2023-04-22T20:39:44.375Z,2.90
2023-04-22T20:42:11.871Z,2.90
2023-04-22T20:44:39.758Z,2.60
2023-04-22T20:47:07.642Z,3.03
2023-04-22T20:49:34.732Z,2.97
2023-04-22T20:52:02.262Z,3.40
2023-04-22T20:54:30.268Z,3.00
2023-04-22T20:56:57.867Z,2.70
2023-04-22T20:59:25.049Z,2.90
2023-04-22T21:01:53.772Z,2.70
2023-04-22T21:04:23.961Z,2.80
2023-04-22T21:06:52.309Z,2.77
2023-04-22T21:09:24.933Z,2.70
2023-04-22T21:11:53.021Z,2.70
2023-04-22T21:14:22.179Z,2.60
2023-04-22T21:17:09.632Z,2.53
2023-04-22T21:19:38.862Z,2.40
2023-04-22T21:22:06.769Z,2.63
2023-04-22T21:24:38.031Z,2.67
2023-04-22T21:27:06.165Z,2.13
2023-04-22T21:29:33.598Z,2.17
2023-04-22T21:32:08.668Z,2.40
2023-04-22T21:34:36.723Z,2.50
2023-04-22T21:37:05.201Z,2.33
2023-04-22T21:39:32.309Z,2.10
2023-04-22T21:41:59.508Z,2.70
2023-04-22T21:44:26.762Z,2.37
2023-04-22T21:46:53.902Z,2.30
2023-04-22T21:49:22.983Z,2.20
2023-04-22T21:51:50.230Z,2.37
2023-04-22T21:54:17.960Z,2.57
2023-04-22T21:56:45.338Z,2.60
2023-04-22T21:59:12.488Z,2.33
2023-04-22T22:01:39.676Z,2.60
2023-04-22T22:04:07.041Z,2.50
2023-04-22T22:06:34.285Z,2.30
2023-04-22T22:09:01.436Z,2.67
2023-04-22T22:11:31.296Z,2.43
2023-04-22T22:13:58.627Z,2.37
2023-04-22T22:16:25.972Z,2.80
2023-04-22T22:18:53.364Z,2.43
2023-04-22T22:21:20.685Z,2.70
2023-04-22T22:23:47.802Z,2.87
2023-04-22T22:26:14.897Z,2.70
2023-04-22T22:28:42.050Z,2.80
2023-04-22T22:31:09.176Z,2.40
2023-04-22T22:33:36.304Z,2.57
2023-04-22T22:36:03.427Z,2.60
2023-04-22T22:38:30.535Z,2.50
2023-04-22T22:40:57.672Z,2.53
2023-04-22T22:43:24.791Z,2.80
2023-04-22T22:45:52.010Z,2.70
2023-04-22T22:48:19.487Z,2.50
2023-04-22T22:50:46.606Z,2.77
2023-04-22T22:53:13.722Z,3.20
2023-04-22T22:55:40.833Z,2.60
2023-04-22T22:58:07.922Z,2.80
2023-04-22T23:00:35.228Z,2.40
2023-04-22T23:03:02.504Z,2.67
2023-04-22T23:05:29.845Z,2.60
2023-04-22T23:07:56.949Z,2.90
2023-04-22T23:10:24.057Z,2.43
2023-04-22T23:12:51.149Z,2.70
2023-04-22T23:15:18.289Z,2.40
2023-04-22T23:17:45.813Z,2.40
2023-04-22T23:20:14.079Z,2.77
2023-04-22T23:22:42.368Z,2.50
2023-04-22T23:25:09.966Z,2.30
2023-04-22T23:27:37.162Z,2.47
2023-04-22T23:30:04.806Z,2.67
2023-04-22T23:32:33.814Z,2.73
2023-04-22T23:35:01.805Z,2.67
2023-04-22T23:37:29.731Z,2.90
2023-04-22T23:39:57.030Z,2.70
2023-04-22T23:42:24.225Z,2.80
2023-04-22T23:44:51.341Z,3.00
2023-04-22T23:47:18.533Z,2.50
2023-04-22T23:49:46.289Z,2.87
2023-04-22T23:52:14.056Z,3.00
2023-04-22T23:54:41.792Z,3.10
2023-04-22T23:57:09.321Z,2.83
2023-04-22T23:59:36.604Z,3.30
